createdAt,value
2019-03-16T00:00:40.248Z,4.59
2019-03-16T00:01:56.214Z,4.48
2019-03-16T00:02:49.196Z,4.37
2019-03-16T00:03:52.911Z,4.24
2019-03-16T00:04:56.645Z,4.19
2019-03-16T00:06:00.338Z,4.22
2019-03-16T00:07:04.057Z,4.21
2019-03-16T00:08:07.762Z,4.18
2019-03-16T00:09:11.445Z,4.19
2019-03-16T00:10:16.058Z,4.15
2019-03-16T00:11:19.628Z,4.07
2019-03-16T00:12:23.269Z,4.00
2019-03-16T00:13:26.897Z,4.09
2019-03-16T00:14:30.588Z,4.17
2019-03-16T00:15:34.229Z,4.23
2019-03-16T00:16:37.866Z,4.22
2019-03-16T00:17:41.438Z,4.21
2019-03-16T00:18:45.763Z,4.16
2019-03-16T00:19:50.261Z,4.15
2019-03-16T00:20:53.905Z,4.08
2019-03-16T00:21:57.624Z,4.00
2019-03-16T00:23:01.252Z,3.94
2019-03-16T00:24:04.981Z,3.85
2019-03-16T00:25:09.923Z,3.86
2019-03-16T00:26:13.553Z,3.83
2019-03-16T00:27:17.063Z,3.87
2019-03-16T00:28:20.696Z,3.92
2019-03-16T00:29:24.433Z,3.89
2019-03-16T00:30:28.091Z,3.89
2019-03-16T00:31:31.730Z,3.88
2019-03-16T00:32:35.442Z,3.92
2019-03-16T00:33:39.131Z,3.97
2019-03-16T00:34:42.769Z,4.03
2019-03-16T00:35:46.379Z,4.03
2019-03-16T00:36:49.939Z,4.07
2019-03-16T00:37:53.580Z,4.13
2019-03-16T00:38:57.564Z,4.08
2019-03-16T00:40:01.189Z,4.08
2019-03-16T00:41:04.954Z,4.01
2019-03-16T00:42:08.681Z,3.97
2019-03-16T00:43:12.838Z,3.97
2019-03-16T00:44:16.472Z,3.89
2019-03-16T00:45:20.200Z,3.84
2019-03-16T00:46:23.862Z,3.82
2019-03-16T00:47:27.495Z,3.78
2019-03-16T00:48:31.131Z,3.81
2019-03-16T00:49:34.772Z,3.86
2019-03-16T00:50:38.398Z,3.82
2019-03-16T00:51:41.985Z,3.76
2019-03-16T00:52:45.613Z,3.78
2019-03-16T00:53:49.181Z,3.84
2019-03-16T00:54:52.814Z,3.89
2019-03-16T00:55:56.450Z,3.97
2019-03-16T00:57:00.128Z,4.07
2019-03-16T00:58:03.763Z,4.13
2019-03-16T00:59:07.705Z,4.16
2019-03-16T01:00:16.003Z,4.23
2019-03-16T01:01:19.968Z,4.04
2019-03-16T01:02:27.396Z,3.80
2019-03-16T01:03:29.008Z,3.80
2019-03-16T01:04:32.658Z,3.76
2019-03-16T01:05:36.215Z,3.71
2019-03-16T01:06:39.784Z,3.67
2019-03-16T01:07:43.427Z,3.48
2019-03-16T01:08:47.152Z,3.34
2019-03-16T01:09:50.889Z,3.23
2019-03-16T01:10:54.529Z,3.17
2019-03-16T01:11:58.175Z,3.10
2019-03-16T01:13:01.837Z,3.21
2019-03-16T01:14:05.471Z,3.33
2019-03-16T01:15:11.179Z,3.41
2019-03-16T01:16:14.811Z,3.51
2019-03-16T01:17:18.519Z,3.51
2019-03-16T01:18:22.184Z,3.43
2019-03-16T01:19:26.195Z,3.39
2019-03-16T01:20:30.231Z,3.37
2019-03-16T01:21:33.874Z,3.27
2019-03-16T01:22:37.453Z,3.20
2019-03-16T01:23:41.139Z,3.08
2019-03-16T01:24:44.772Z,3.06
2019-03-16T01:25:48.408Z,3.05
2019-03-16T01:26:52.042Z,2.97
2019-03-16T01:27:55.707Z,2.92
2019-03-16T01:28:59.375Z,2.97
2019-03-16T01:30:03.322Z,3.03
2019-03-16T01:31:06.961Z,3.06
2019-03-16T01:32:10.525Z,3.12
2019-03-16T01:33:14.161Z,3.20
2019-03-16T01:34:17.818Z,3.27
2019-03-16T01:35:21.460Z,3.37
2019-03-16T01:36:25.052Z,3.46
2019-03-16T01:37:28.623Z,3.51
2019-03-16T01:38:32.253Z,3.44
2019-03-16T01:39:35.935Z,3.33
2019-03-16T01:40:39.562Z,3.27
2019-03-16T01:41:43.206Z,3.26
2019-03-16T01:42:46.864Z,3.30
2019-03-16T01:43:50.585Z,3.28
2019-03-16T01:44:54.258Z,3.28
2019-03-16T01:45:57.891Z,3.23
2019-03-16T01:47:01.527Z,3.24
2019-03-16T01:48:05.160Z,3.28
2019-03-16T01:49:08.800Z,3.25
2019-03-16T01:50:12.986Z,3.27
2019-03-16T01:51:16.630Z,3.28
2019-03-16T01:52:20.269Z,3.36
2019-03-16T01:53:23.917Z,3.44
2019-03-16T01:54:27.598Z,3.52
2019-03-16T01:55:31.206Z,3.57
2019-03-16T01:56:34.846Z,3.46
2019-03-16T01:57:38.558Z,3.39
2019-03-16T01:58:42.198Z,3.19
2019-03-16T01:59:45.787Z,3.07
2019-03-16T02:00:49.456Z,2.94
2019-03-16T02:01:53.089Z,2.76
2019-03-16T02:02:56.739Z,2.65
2019-03-16T02:04:00.374Z,2.68
2019-03-16T02:05:04.604Z,2.60
2019-03-16T02:06:08.261Z,2.56
2019-03-16T02:07:11.901Z,2.44
2019-03-16T02:08:15.605Z,2.41
2019-03-16T02:09:19.295Z,2.42
2019-03-16T02:10:22.866Z,2.47
2019-03-16T02:11:26.849Z,2.59
2019-03-16T02:12:30.889Z,2.70
2019-03-16T02:13:34.451Z,2.82
2019-03-16T02:14:38.171Z,2.92
2019-03-16T02:15:41.808Z,2.96
2019-03-16T02:16:45.714Z,2.94
2019-03-16T02:17:49.359Z,2.98
2019-03-16T02:18:53.009Z,2.97
2019-03-16T02:19:56.645Z,2.91
2019-03-16T02:21:00.480Z,2.85
2019-03-16T02:22:04.134Z,2.85
2019-03-16T02:23:15.042Z,2.84
2019-03-16T02:24:20.170Z,2.82
2019-03-16T02:25:23.827Z,2.70
2019-03-16T02:26:27.508Z,2.60
2019-03-16T02:27:32.616Z,2.51
2019-03-16T02:28:41.181Z,2.50
2019-03-16T02:29:45.196Z,2.51
2019-03-16T02:30:48.946Z,2.62
2019-03-16T02:31:52.587Z,2.76
2019-03-16T02:33:11.889Z,2.84
2019-03-16T02:34:01.794Z,2.88
2019-03-16T02:35:07.036Z,2.81
2019-03-16T02:36:10.681Z,2.62
2019-03-16T02:37:14.325Z,2.53
2019-03-16T02:38:18.016Z,2.55
2019-03-16T02:39:21.711Z,2.55
2019-03-16T02:40:25.448Z,2.51
2019-03-16T02:41:29.020Z,2.41
2019-03-16T02:42:32.682Z,2.31
2019-03-16T02:43:36.304Z,2.25
2019-03-16T02:44:39.966Z,2.22
2019-03-16T02:45:43.598Z,2.18
2019-03-16T02:46:47.231Z,2.18
2019-03-16T02:47:50.890Z,2.12
2019-03-16T02:48:54.533Z,2.14
2019-03-16T02:49:58.319Z,2.29
2019-03-16T02:51:02.278Z,2.39
2019-03-16T02:52:05.906Z,2.51
2019-03-16T02:53:09.549Z,2.55
2019-03-16T02:54:13.186Z,2.55
2019-03-16T02:55:19.096Z,2.53
2019-03-16T02:56:22.738Z,2.50
2019-03-16T02:57:26.374Z,2.38
2019-03-16T02:58:30.003Z,2.35
2019-03-16T02:59:33.707Z,2.34
2019-03-16T03:00:37.371Z,2.40
2019-03-16T03:01:41.321Z,2.44
2019-03-16T03:02:44.962Z,2.42
2019-03-16T03:03:48.644Z,2.38
2019-03-16T03:04:52.397Z,2.44
2019-03-16T03:05:56.051Z,2.48
2019-03-16T03:06:59.687Z,2.51
2019-03-16T03:08:03.321Z,2.59
2019-03-16T03:09:08.557Z,2.70
2019-03-16T03:10:13.994Z,2.79
2019-03-16T03:11:17.638Z,2.85
2019-03-16T03:12:21.276Z,2.92
2019-03-16T03:13:24.922Z,2.87
2019-03-16T03:14:28.918Z,2.85
2019-03-16T03:15:32.486Z,2.89
2019-03-16T03:16:36.509Z,2.89
2019-03-16T03:17:40.156Z,2.85
2019-03-16T03:18:43.721Z,2.78
2019-03-16T03:19:47.344Z,2.79
2019-03-16T03:20:50.977Z,2.80
2019-03-16T03:21:54.669Z,2.86
2019-03-16T03:22:58.292Z,2.93
2019-03-16T03:24:01.924Z,2.92
2019-03-16T03:25:06.366Z,2.89
2019-03-16T03:26:10.004Z,2.91
2019-03-16T03:27:13.607Z,2.87
2019-03-16T03:28:17.255Z,2.98
2019-03-16T03:29:20.890Z,3.03
2019-03-16T03:30:24.534Z,3.10
2019-03-16T03:31:28.166Z,3.16
2019-03-16T03:32:31.834Z,3.18
2019-03-16T03:33:57.278Z,3.16
2019-03-16T03:34:41.164Z,3.14
2019-03-16T03:35:44.809Z,3.16
2019-03-16T03:36:48.452Z,3.22
2019-03-16T03:37:52.085Z,3.19
2019-03-16T03:38:55.745Z,3.12
2019-03-16T03:39:59.378Z,3.15
2019-03-16T03:41:03.157Z,3.13
2019-03-16T03:42:07.342Z,3.07
2019-03-16T03:43:11.092Z,3.05
2019-03-16T03:44:14.733Z,3.12
2019-03-16T03:45:18.373Z,3.21
2019-03-16T03:46:22.015Z,3.27
2019-03-16T03:47:25.650Z,3.34
2019-03-16T03:48:29.421Z,3.41
2019-03-16T03:49:33.071Z,3.51
2019-03-16T03:50:36.723Z,3.53
2019-03-16T03:51:40.344Z,3.48
2019-03-16T03:52:43.980Z,3.36
2019-03-16T03:53:47.550Z,3.23
2019-03-16T03:54:51.290Z,3.15
2019-03-16T03:55:54.923Z,3.17
2019-03-16T03:56:58.496Z,3.13
2019-03-16T03:58:02.139Z,3.12
2019-03-16T03:59:05.817Z,3.12
2019-03-16T04:00:12.417Z,3.06
2019-03-16T04:01:16.064Z,3.08
2019-03-16T04:02:19.691Z,3.01
2019-03-16T04:03:23.331Z,2.93
2019-03-16T04:04:26.992Z,2.88
2019-03-16T04:05:30.631Z,2.98
2019-03-16T04:06:34.281Z,3.08
2019-03-16T04:07:37.977Z,3.17
2019-03-16T04:08:41.627Z,3.23
2019-03-16T04:09:45.700Z,3.13
2019-03-16T04:10:49.352Z,2.93
2019-03-16T04:11:52.983Z,2.88
2019-03-16T04:12:56.547Z,2.82
2019-03-16T04:14:00.190Z,2.68
2019-03-16T04:15:05.290Z,2.62
2019-03-16T04:16:08.913Z,2.52
2019-03-16T04:17:12.549Z,2.53
2019-03-16T04:18:16.309Z,2.57
2019-03-16T04:19:19.899Z,2.60
2019-03-16T04:20:23.567Z,2.60
2019-03-16T04:21:27.202Z,2.58
2019-03-16T04:22:30.834Z,2.56
2019-03-16T04:23:34.403Z,2.54
2019-03-16T04:24:38.063Z,2.55
2019-03-16T04:25:41.733Z,2.68
2019-03-16T04:26:45.464Z,2.76
2019-03-16T04:27:49.089Z,2.83
2019-03-16T04:28:52.713Z,2.77
2019-03-16T04:29:56.345Z,2.75
2019-03-16T04:31:00.016Z,2.71
2019-03-16T04:32:03.660Z,2.62
2019-03-16T04:33:07.293Z,2.53
2019-03-16T04:34:10.860Z,2.40
2019-03-16T04:35:14.501Z,2.25
2019-03-16T04:36:18.170Z,2.19
2019-03-16T04:37:21.730Z,2.06
2019-03-16T04:38:25.294Z,1.99
2019-03-16T04:39:29.337Z,1.99
2019-03-16T04:40:32.973Z,1.92
2019-03-16T04:41:36.650Z,1.91
2019-03-16T04:42:40.284Z,1.97
2019-03-16T04:43:43.918Z,2.06
2019-03-16T04:44:47.490Z,2.17
2019-03-16T04:45:51.131Z,2.31
2019-03-16T04:46:54.780Z,2.38
2019-03-16T04:47:58.755Z,2.40
2019-03-16T04:49:02.326Z,2.37
2019-03-16T04:50:08.461Z,2.35
2019-03-16T04:51:12.023Z,2.25
2019-03-16T04:52:15.696Z,2.22
2019-03-16T04:53:19.320Z,2.20
2019-03-16T04:54:22.953Z,2.20
2019-03-16T04:55:26.440Z,2.23
2019-03-16T04:56:30.954Z,2.29
2019-03-16T04:57:34.616Z,2.36
2019-03-16T04:58:38.256Z,2.38
2019-03-16T04:59:41.810Z,2.35
2019-03-16T05:00:45.448Z,2.37
2019-03-16T05:01:49.089Z,2.38
2019-03-16T05:02:52.760Z,2.50
2019-03-16T05:03:56.394Z,2.64
2019-03-16T05:04:59.952Z,2.75
2019-03-16T05:06:03.598Z,2.82
2019-03-16T05:07:07.231Z,2.75
2019-03-16T05:08:10.899Z,2.67
2019-03-16T05:09:14.546Z,2.65
2019-03-16T05:10:18.181Z,2.72
2019-03-16T05:11:22.136Z,2.78
2019-03-16T05:12:25.762Z,2.79
2019-03-16T05:13:29.447Z,2.82
2019-03-16T05:14:33.144Z,2.76
2019-03-16T05:15:36.805Z,2.64
2019-03-16T05:16:40.457Z,2.52
2019-03-16T05:17:44.107Z,2.46
2019-03-16T05:18:47.797Z,2.41
2019-03-16T05:19:51.444Z,2.35
2019-03-16T05:20:55.082Z,2.32
2019-03-16T05:21:58.726Z,2.46
2019-03-16T05:23:02.371Z,2.63
2019-03-16T05:24:06.016Z,2.77
2019-03-16T05:25:11.218Z,2.81
2019-03-16T05:26:14.871Z,2.75
2019-03-16T05:27:18.485Z,2.74
2019-03-16T05:28:22.121Z,2.73
2019-03-16T05:29:25.683Z,2.72
2019-03-16T05:30:29.329Z,2.76
2019-03-16T05:31:32.974Z,2.90
2019-03-16T05:32:36.660Z,2.90
2019-03-16T05:33:40.447Z,2.94
2019-03-16T05:34:55.996Z,2.99
2019-03-16T05:35:50.329Z,3.12
2019-03-16T05:36:56.064Z,3.25
2019-03-16T05:38:01.474Z,3.39
2019-03-16T05:39:07.336Z,3.54
2019-03-16T05:40:11.966Z,3.67
2019-03-16T05:41:15.682Z,3.76
2019-03-16T05:42:19.338Z,3.78
2019-03-16T05:43:24.647Z,3.91
2019-03-16T05:44:31.677Z,3.96
2019-03-16T05:45:35.326Z,3.84
2019-03-16T05:46:38.970Z,3.78
2019-03-16T05:47:42.624Z,3.76
2019-03-16T05:48:52.665Z,3.94
2019-03-16T05:49:56.237Z,4.00
2019-03-16T05:51:01.514Z,4.00
2019-03-16T05:52:08.091Z,3.94
2019-03-16T05:53:14.787Z,3.92
2019-03-16T05:54:18.464Z,3.73
2019-03-16T05:55:26.282Z,3.67
2019-03-16T05:56:29.983Z,3.72
2019-03-16T05:57:36.582Z,3.80
2019-03-16T05:58:40.220Z,3.76
2019-03-16T05:59:43.932Z,3.86
2019-03-16T06:00:49.321Z,4.04
2019-03-16T06:01:52.934Z,4.11
2019-03-16T06:02:58.052Z,4.10
2019-03-16T06:04:03.019Z,4.00
2019-03-16T06:05:10.739Z,4.08
2019-03-16T06:06:14.288Z,4.03
2019-03-16T06:07:17.916Z,3.96
2019-03-16T06:08:21.488Z,4.08
2019-03-16T06:09:25.067Z,4.17
2019-03-16T06:10:29.076Z,4.28
2019-03-16T06:11:33.114Z,4.28
2019-03-16T06:12:36.759Z,4.29
2019-03-16T06:13:40.429Z,4.22
2019-03-16T06:14:44.079Z,4.30
2019-03-16T06:15:47.757Z,4.43
2019-03-16T06:16:51.460Z,4.44
2019-03-16T06:17:55.038Z,4.47
2019-03-16T06:18:58.682Z,4.46
2019-03-16T06:20:02.255Z,4.45
2019-03-16T06:21:05.985Z,4.51
2019-03-16T06:22:10.016Z,4.57
2019-03-16T06:23:16.329Z,4.51
2019-03-16T06:24:20.642Z,4.54
2019-03-16T06:25:24.297Z,4.70
2019-03-16T06:26:28.019Z,4.78
2019-03-16T06:27:33.304Z,4.81
2019-03-16T06:28:36.955Z,4.91
2019-03-16T06:29:40.583Z,5.06
2019-03-16T06:30:44.231Z,5.24
2019-03-16T06:31:49.168Z,5.33
2019-03-16T06:32:52.747Z,5.32
2019-03-16T06:33:56.444Z,5.40
2019-03-16T06:35:00.108Z,5.41
2019-03-16T06:36:05.418Z,5.37
2019-03-16T06:37:09.077Z,5.41
2019-03-16T06:38:12.708Z,5.43
2019-03-16T06:39:16.286Z,5.30
2019-03-16T06:40:19.941Z,5.23
2019-03-16T06:41:23.581Z,5.17
2019-03-16T06:42:27.265Z,5.23
2019-03-16T06:43:30.910Z,5.43
2019-03-16T06:44:34.552Z,5.55
2019-03-16T06:45:38.275Z,5.68
2019-03-16T06:46:41.908Z,5.89
2019-03-16T06:47:45.592Z,5.92
2019-03-16T06:48:49.236Z,5.91
2019-03-16T06:49:52.863Z,6.05
2019-03-16T06:50:56.508Z,6.07
2019-03-16T06:52:00.313Z,5.98
2019-03-16T06:53:04.955Z,6.21
2019-03-16T06:54:08.994Z,6.39
2019-03-16T06:55:12.655Z,6.45
2019-03-16T06:56:16.208Z,6.58
2019-03-16T06:57:19.854Z,6.56
2019-03-16T06:58:23.536Z,6.58
2019-03-16T06:59:27.176Z,6.60
2019-03-16T07:00:30.888Z,6.66
2019-03-16T07:01:35.967Z,6.89
2019-03-16T07:02:39.610Z,6.94
2019-03-16T07:03:43.610Z,6.91
2019-03-16T07:04:47.601Z,6.83
2019-03-16T07:05:52.589Z,6.82
2019-03-16T07:06:56.235Z,6.87
2019-03-16T07:07:59.880Z,6.80
2019-03-16T07:09:04.477Z,6.82
2019-03-16T07:10:11.479Z,7.03
2019-03-16T07:11:17.152Z,7.24
2019-03-16T07:12:22.189Z,7.43
2019-03-16T07:13:28.009Z,7.51
2019-03-16T07:14:31.968Z,7.51
2019-03-16T07:15:38.713Z,7.49
2019-03-16T07:16:42.342Z,7.55
2019-03-16T07:17:45.978Z,7.55
2019-03-16T07:18:58.784Z,7.53
2019-03-16T07:19:55.023Z,7.52
2019-03-16T07:20:58.662Z,7.61
2019-03-16T07:22:02.302Z,7.68
2019-03-16T07:23:05.928Z,7.75
2019-03-16T07:24:09.661Z,7.71
2019-03-16T07:25:13.319Z,7.69
2019-03-16T07:26:17.084Z,7.78
2019-03-16T07:27:25.966Z,7.87
2019-03-16T07:28:26.203Z,8.13
2019-03-16T07:29:29.841Z,8.11
2019-03-16T07:30:33.519Z,8.13
2019-03-16T07:31:38.878Z,8.14
2019-03-16T07:32:42.518Z,8.17
2019-03-16T07:33:46.533Z,8.35
2019-03-16T07:34:50.167Z,8.58
2019-03-16T07:35:53.839Z,8.57
2019-03-16T07:36:57.474Z,8.78
2019-03-16T07:38:01.128Z,8.81
2019-03-16T07:39:06.868Z,8.93
2019-03-16T07:40:12.104Z,8.89
2019-03-16T07:41:15.704Z,9.04
2019-03-16T07:42:19.341Z,9.13
2019-03-16T07:43:22.978Z,9.28
2019-03-16T07:44:26.927Z,9.43
2019-03-16T07:45:30.561Z,9.51
2019-03-16T07:46:34.239Z,9.44
2019-03-16T07:47:37.875Z,9.33
2019-03-16T07:48:41.501Z,9.39
2019-03-16T07:49:45.518Z,9.51
2019-03-16T07:50:49.148Z,9.50
2019-03-16T07:51:52.811Z,9.48
2019-03-16T07:52:56.457Z,9.40
2019-03-16T07:54:00.124Z,9.38
2019-03-16T07:55:04.467Z,9.46
2019-03-16T07:56:08.106Z,9.39
2019-03-16T07:57:11.843Z,9.38
2019-03-16T07:58:15.346Z,9.19
2019-03-16T07:59:18.983Z,9.30
2019-03-16T08:00:22.622Z,9.29
2019-03-16T08:01:26.264Z,9.24
2019-03-16T08:02:29.934Z,9.25
2019-03-16T08:03:33.568Z,9.29
2019-03-16T08:04:37.265Z,9.24
2019-03-16T08:05:42.017Z,9.33
2019-03-16T08:06:45.658Z,9.40
2019-03-16T08:07:49.405Z,9.49
2019-03-16T08:08:53.565Z,9.60
2019-03-16T08:09:57.142Z,9.74
2019-03-16T08:11:00.781Z,9.98
2019-03-16T08:12:04.348Z,10.02
2019-03-16T08:13:08.622Z,10.07
2019-03-16T08:14:12.261Z,10.36
2019-03-16T08:15:15.902Z,11.01
2019-03-16T08:16:19.617Z,11.01
2019-03-16T08:17:23.693Z,11.21
2019-03-16T08:18:27.356Z,11.46
2019-03-16T08:19:31.007Z,11.67
2019-03-16T08:20:34.723Z,11.77
2019-03-16T08:21:39.998Z,11.92
2019-03-16T08:22:43.657Z,11.92
2019-03-16T08:23:47.423Z,11.81
2019-03-16T08:24:51.067Z,11.57
2019-03-16T08:25:54.588Z,11.57
2019-03-16T08:26:58.236Z,11.50
2019-03-16T08:28:02.838Z,11.59
2019-03-16T08:29:06.564Z,11.73
2019-03-16T08:30:12.018Z,11.76
2019-03-16T08:31:15.641Z,11.72
2019-03-16T08:32:19.287Z,11.58
2019-03-16T08:33:22.934Z,11.58
2019-03-16T08:34:26.614Z,11.38
2019-03-16T08:35:30.184Z,11.38
2019-03-16T08:36:34.161Z,11.44
2019-03-16T08:37:37.812Z,11.71
2019-03-16T08:38:41.448Z,11.71
2019-03-16T08:39:45.054Z,11.55
2019-03-16T08:40:48.699Z,11.36
2019-03-16T08:41:52.338Z,11.30
2019-03-16T08:42:55.979Z,11.22
2019-03-16T08:43:59.840Z,11.22
2019-03-16T08:45:04.533Z,11.34
2019-03-16T08:46:08.169Z,11.31
2019-03-16T08:47:11.824Z,11.31
2019-03-16T08:48:22.685Z,11.37
2019-03-16T08:49:20.827Z,11.48
2019-03-16T08:50:24.496Z,11.78
2019-03-16T08:51:28.157Z,12.09
2019-03-16T08:52:31.795Z,12.39
2019-03-16T08:53:35.438Z,12.39
2019-03-16T08:54:39.092Z,12.59
2019-03-16T08:55:42.768Z,12.78
2019-03-16T08:56:46.471Z,12.78
2019-03-16T08:57:50.037Z,13.18
2019-03-16T08:58:54.171Z,13.53
2019-03-16T08:59:57.809Z,13.63
2019-03-16T09:01:01.500Z,13.66
2019-03-16T09:02:05.238Z,13.94
2019-03-16T09:03:08.984Z,14.37
2019-03-16T09:04:12.626Z,14.59
2019-03-16T09:05:16.266Z,14.49
2019-03-16T09:06:19.954Z,14.73
2019-03-16T09:07:23.582Z,15.20
2019-03-16T09:08:32.472Z,15.90
2019-03-16T09:09:38.386Z,16.39
2019-03-16T09:10:42.030Z,17.03
2019-03-16T09:11:45.683Z,17.72
2019-03-16T09:12:54.896Z,18.07
2019-03-16T09:13:54.786Z,18.25
2019-03-16T09:14:58.445Z,18.79
2019-03-16T09:16:02.090Z,19.27
2019-03-16T09:17:08.766Z,19.38
2019-03-16T09:18:11.247Z,19.79
2019-03-16T09:19:14.899Z,20.25
2019-03-16T09:20:18.534Z,20.57
2019-03-16T09:21:22.484Z,20.82
2019-03-16T09:22:29.875Z,21.14
2019-03-16T09:23:33.861Z,21.42
2019-03-16T09:24:37.507Z,21.70
2019-03-16T09:25:41.143Z,21.77
2019-03-16T09:26:44.887Z,21.85
2019-03-16T09:27:48.551Z,21.79
2019-03-16T09:29:00.002Z,21.72
2019-03-16T09:29:58.012Z,21.95
2019-03-16T09:31:01.655Z,22.36
2019-03-16T09:32:05.294Z,22.69
2019-03-16T09:33:09.002Z,22.72
2019-03-16T09:34:12.622Z,23.01
2019-03-16T09:35:16.419Z,23.26
2019-03-16T09:36:20.068Z,23.45
2019-03-16T09:37:23.694Z,23.73
2019-03-16T09:38:27.391Z,24.30
2019-03-16T09:39:31.040Z,24.90
2019-03-16T09:40:34.672Z,24.95
2019-03-16T09:41:38.314Z,24.63
2019-03-16T09:42:41.967Z,24.32
2019-03-16T09:43:45.649Z,24.25
2019-03-16T09:44:49.287Z,24.42
2019-03-16T09:45:52.926Z,24.74
2019-03-16T09:46:56.560Z,25.18
2019-03-16T09:48:00.277Z,25.74
2019-03-16T09:49:03.989Z,25.97
2019-03-16T09:50:09.443Z,26.44
2019-03-16T09:51:13.092Z,26.83
2019-03-16T09:52:16.719Z,27.17
2019-03-16T09:53:20.365Z,26.71
2019-03-16T09:54:24.027Z,26.88
2019-03-16T09:55:27.669Z,27.14
2019-03-16T09:56:31.399Z,27.16
2019-03-16T09:57:34.980Z,26.96
2019-03-16T09:58:38.628Z,27.01
2019-03-16T09:59:42.242Z,26.48
2019-03-16T10:00:45.818Z,26.29
2019-03-16T10:01:49.387Z,26.45
2019-03-16T10:02:53.040Z,26.74
2019-03-16T10:03:56.672Z,26.69
2019-03-16T10:05:00.516Z,27.13
2019-03-16T10:06:04.151Z,26.98
2019-03-16T10:07:07.793Z,27.03
2019-03-16T10:08:11.439Z,26.95
2019-03-16T10:09:15.087Z,27.17
2019-03-16T10:10:18.777Z,27.01
2019-03-16T10:11:22.335Z,26.90
2019-03-16T10:12:25.972Z,26.77
2019-03-16T10:13:29.904Z,26.20
2019-03-16T10:14:37.028Z,26.34
2019-03-16T10:15:39.296Z,26.54
2019-03-16T10:16:42.959Z,26.29
2019-03-16T10:17:46.577Z,26.08
2019-03-16T10:18:50.209Z,26.15
2019-03-16T10:19:53.838Z,26.19
2019-03-16T10:20:57.480Z,26.57
2019-03-16T10:22:01.114Z,26.79
2019-03-16T10:23:04.747Z,27.29
2019-03-16T10:24:08.374Z,27.46
2019-03-16T10:25:12.019Z,27.51
2019-03-16T10:26:15.679Z,27.19
2019-03-16T10:27:19.303Z,26.96
2019-03-16T10:28:23.344Z,26.74
2019-03-16T10:29:27.040Z,26.94
2019-03-16T10:30:30.814Z,26.51
2019-03-16T10:31:34.424Z,26.77
2019-03-16T10:32:38.055Z,26.97
2019-03-16T10:33:41.686Z,27.38
2019-03-16T10:34:45.314Z,27.66
2019-03-16T10:35:48.886Z,27.58
2019-03-16T10:36:52.522Z,27.23
2019-03-16T10:37:56.151Z,27.10
2019-03-16T10:38:59.716Z,27.54
2019-03-16T10:40:04.647Z,28.09
2019-03-16T10:41:08.275Z,28.26
2019-03-16T10:42:11.770Z,28.20
2019-03-16T10:43:15.345Z,28.16
2019-03-16T10:44:18.905Z,27.89
2019-03-16T10:45:22.551Z,28.12
2019-03-16T10:46:26.197Z,28.47
2019-03-16T10:47:29.843Z,28.23
2019-03-16T10:48:33.819Z,28.22
2019-03-16T10:49:37.463Z,28.53
2019-03-16T10:50:41.105Z,28.92
2019-03-16T10:51:44.731Z,28.77
2019-03-16T10:52:48.404Z,28.83
2019-03-16T10:53:51.973Z,28.97
2019-03-16T10:54:55.600Z,28.83
2019-03-16T10:55:59.579Z,28.92
2019-03-16T10:57:04.338Z,29.11
2019-03-16T10:58:08.178Z,29.15
2019-03-16T10:59:11.797Z,29.71
2019-03-16T11:00:16.813Z,30.25
2019-03-16T11:01:20.440Z,30.70
2019-03-16T11:02:24.075Z,30.87
2019-03-16T11:03:27.663Z,31.07
2019-03-16T11:04:31.318Z,30.98
2019-03-16T11:05:34.943Z,30.93
2019-03-16T11:06:38.575Z,31.30
2019-03-16T11:07:42.130Z,31.21
2019-03-16T11:08:45.802Z,31.25
2019-03-16T11:09:49.435Z,30.93
2019-03-16T11:10:53.140Z,30.71
2019-03-16T11:11:56.690Z,31.15
2019-03-16T11:13:00.326Z,31.33
2019-03-16T11:14:03.937Z,31.01
2019-03-16T11:15:11.509Z,30.98
2019-03-16T11:16:15.114Z,31.20
2019-03-16T11:17:18.748Z,31.42
2019-03-16T11:18:22.372Z,31.94
2019-03-16T11:19:25.943Z,32.38
2019-03-16T11:20:29.587Z,32.93
2019-03-16T11:21:33.150Z,33.12
2019-03-16T11:22:36.785Z,33.10
2019-03-16T11:23:40.435Z,33.06
2019-03-16T11:24:44.090Z,32.30
2019-03-16T11:25:47.717Z,31.99
2019-03-16T11:26:51.355Z,31.01
2019-03-16T11:27:55.263Z,30.70
2019-03-16T11:29:08.472Z,30.15
2019-03-16T11:30:05.551Z,30.39
2019-03-16T11:31:09.173Z,30.69
2019-03-16T11:32:12.817Z,30.73
2019-03-16T11:33:16.442Z,30.66
2019-03-16T11:34:20.149Z,30.68
2019-03-16T11:35:23.827Z,30.40
2019-03-16T11:36:27.468Z,30.31
2019-03-16T11:37:31.094Z,29.91
2019-03-16T11:38:34.731Z,29.62
2019-03-16T11:39:38.365Z,29.05
2019-03-16T11:40:42.101Z,29.08
2019-03-16T11:41:45.726Z,29.08
2019-03-16T11:42:49.292Z,28.84
2019-03-16T11:43:52.922Z,28.11
2019-03-16T11:44:56.554Z,28.11
2019-03-16T11:46:00.212Z,28.31
2019-03-16T11:47:03.851Z,28.25
2019-03-16T11:48:07.486Z,28.43
2019-03-16T11:49:11.123Z,28.14
2019-03-16T11:50:15.771Z,28.52
2019-03-16T11:51:19.449Z,28.94
2019-03-16T11:52:23.078Z,29.33
2019-03-16T11:53:26.702Z,29.15
2019-03-16T11:54:30.402Z,29.30
2019-03-16T11:55:34.044Z,29.48
2019-03-16T11:56:37.713Z,29.72
2019-03-16T11:57:41.361Z,30.18
2019-03-16T11:58:44.997Z,29.95
2019-03-16T11:59:48.658Z,29.25
2019-03-16T12:00:52.381Z,29.02
2019-03-16T12:02:05.155Z,28.49
2019-03-16T12:03:01.731Z,28.07
2019-03-16T12:04:05.362Z,28.02
2019-03-16T12:05:10.803Z,28.04
2019-03-16T12:06:14.363Z,28.09
2019-03-16T12:07:18.027Z,28.62
2019-03-16T12:08:21.659Z,29.07
2019-03-16T12:09:25.296Z,29.07
2019-03-16T12:10:28.932Z,28.27
2019-03-16T12:11:32.560Z,27.55
2019-03-16T12:12:36.154Z,27.40
2019-03-16T12:13:39.785Z,27.62
2019-03-16T12:14:43.415Z,27.73
2019-03-16T12:15:47.045Z,27.98
2019-03-16T12:16:50.678Z,28.26
2019-03-16T12:17:54.343Z,28.55
2019-03-16T12:18:57.967Z,28.35
2019-03-16T12:20:01.607Z,28.30
2019-03-16T12:21:05.244Z,27.89
2019-03-16T12:22:08.876Z,27.59
2019-03-16T12:23:12.540Z,27.03
2019-03-16T12:24:16.296Z,26.47
2019-03-16T12:25:19.941Z,26.94
2019-03-16T12:26:23.568Z,27.49
2019-03-16T12:27:27.196Z,27.89
2019-03-16T12:28:30.861Z,28.43
2019-03-16T12:29:34.605Z,28.50
2019-03-16T12:30:38.204Z,28.22
2019-03-16T12:31:41.835Z,28.46
2019-03-16T12:32:45.465Z,28.58
2019-03-16T12:33:49.188Z,28.35
2019-03-16T12:34:52.830Z,28.24
2019-03-16T12:35:56.462Z,28.45
2019-03-16T12:37:00.100Z,28.60
2019-03-16T12:38:03.732Z,28.25
2019-03-16T12:39:07.999Z,28.28
2019-03-16T12:40:13.804Z,28.36
2019-03-16T12:41:17.440Z,28.31
2019-03-16T12:42:21.076Z,28.03
2019-03-16T12:43:24.706Z,28.18
2019-03-16T12:44:28.384Z,28.10
2019-03-16T12:45:32.038Z,28.22
2019-03-16T12:46:38.172Z,28.27
2019-03-16T12:47:41.486Z,28.45
2019-03-16T12:48:45.120Z,28.39
2019-03-16T12:49:48.794Z,28.46
2019-03-16T12:50:54.393Z,28.33
2019-03-16T12:51:57.851Z,28.28
2019-03-16T12:53:03.317Z,28.19
2019-03-16T12:54:07.506Z,27.97
2019-03-16T12:55:11.992Z,28.26
2019-03-16T12:56:15.633Z,28.47
2019-03-16T12:57:19.247Z,28.29
2019-03-16T12:58:22.879Z,28.26
2019-03-16T12:59:26.532Z,28.33
2019-03-16T13:00:30.183Z,28.49
2019-03-16T13:01:33.849Z,28.49
2019-03-16T13:02:37.450Z,28.79
2019-03-16T13:03:41.017Z,28.45
2019-03-16T13:04:44.646Z,28.35
2019-03-16T13:05:48.238Z,28.29
2019-03-16T13:06:51.865Z,28.11
2019-03-16T13:07:56.943Z,27.89
2019-03-16T13:09:03.480Z,27.80
2019-03-16T13:10:15.651Z,27.58
2019-03-16T13:11:19.460Z,27.15
2019-03-16T13:12:23.199Z,27.04
2019-03-16T13:13:26.810Z,26.88
2019-03-16T13:14:30.368Z,26.33
2019-03-16T13:15:34.015Z,26.15
2019-03-16T13:16:37.672Z,25.99
2019-03-16T13:17:41.313Z,25.69
2019-03-16T13:18:44.873Z,25.51
2019-03-16T13:19:48.432Z,25.47
2019-03-16T13:20:52.138Z,25.55
2019-03-16T13:21:55.803Z,25.70
2019-03-16T13:22:59.440Z,25.79
2019-03-16T13:24:02.924Z,25.66
2019-03-16T13:25:09.121Z,25.65
2019-03-16T13:26:12.819Z,25.60
2019-03-16T13:27:16.417Z,25.42
2019-03-16T13:28:20.044Z,25.03
2019-03-16T13:29:23.872Z,25.08
2019-03-16T13:30:27.502Z,24.88
2019-03-16T13:31:31.138Z,24.80
2019-03-16T13:32:35.138Z,24.62
2019-03-16T13:33:38.694Z,24.54
2019-03-16T13:34:42.388Z,24.43
2019-03-16T13:35:46.047Z,24.31
2019-03-16T13:36:49.685Z,24.39
2019-03-16T13:37:53.276Z,24.38
2019-03-16T13:38:56.907Z,24.45
2019-03-16T13:40:00.476Z,24.33
2019-03-16T13:41:04.112Z,24.33
2019-03-16T13:42:07.678Z,24.22
2019-03-16T13:43:11.314Z,24.14
2019-03-16T13:44:14.897Z,24.03
2019-03-16T13:45:18.581Z,23.92
2019-03-16T13:46:22.215Z,24.07
2019-03-16T13:47:25.845Z,24.10
2019-03-16T13:48:29.520Z,23.97
2019-03-16T13:49:33.142Z,23.95
2019-03-16T13:50:37.099Z,23.99
2019-03-16T13:51:41.011Z,23.96
2019-03-16T13:52:44.654Z,24.01
2019-03-16T13:53:48.312Z,24.10
2019-03-16T13:54:51.934Z,24.21
2019-03-16T13:55:55.640Z,24.22
2019-03-16T13:56:59.268Z,24.24
2019-03-16T13:58:02.962Z,24.14
2019-03-16T13:59:08.094Z,24.14